Time;durP1;ratioP1;P1;durP2;ratioP2;P2;SDS_P1;SDS_P2;PMS_P1;PMS_P2;Temp;Humidity;BMP_temperature;BMP_pressure;BME280_temperature;BME280_humidity;BME280_pressure;Samples;Min_cycle;Max_cycle;Signal;HPM_P1;HPM_P2
2021/05/20 00:02:11;;;;;;;;;;;;;;;13.29;81.84;98248.36;1718118;83;20149;-86
2021/05/20 00:04:44;;;;;;;;;;;;;;;13.25;83.44;98241.16;1705114;82;20203;-84
2021/05/20 00:10:36;;;;;;;;;;;;;;;13.12;81.74;98238.30;1705469;82;20195;-85
2021/05/20 00:13:06;;;;;;;;;;;;;;;13.04;79.23;98239.13;1705460;82;20175;-85
2021/05/20 00:18:19;;;;;;;;;;;;;;;12.94;80.21;98232.21;1720543;80;20164;-88
2021/05/20 00:20:45;;;;;;;;;;;;;;;12.67;83.13;98205.72;1728192;83;20200;-86
2021/05/20 00:23:11;;;;;;;;;;;;;;;12.83;83.98;98237.12;1717748;83;20182;-89
2021/05/20 00:25:38;;;;;;;;;;;;;;;12.80;84.13;98238.56;1727574;83;20251;-88
2021/05/20 00:28:04;;;;;;;;;;;;;;;12.79;84.90;98229.03;1728991;81;20236;-88
2021/05/20 00:30:31;;;;;;;;;;;;;;;12.81;82.38;98230.27;1727636;80;20208;-87
2021/05/20 00:32:57;;;;;;;;;;;;;;;12.76;83.85;98227.89;1725245;83;20243;-90
2021/05/20 00:35:23;;;;;;;;;;;;;;;12.73;85.11;98231.50;1725171;83;20179;-90
2021/05/20 00:38:11;;;;;;;;;;;;;;;12.74;81.30;98231.86;1706206;83;20201;-86
2021/05/20 00:40:45;;;;;;;;;;;;;;;12.74;80.26;98238.86;1729271;83;20181;-84
2021/05/20 00:43:11;;;;;;;;;;;;;;;12.69;83.35;98234.30;1699818;83;20160;-88
2021/05/20 00:45:38;;;;;;;;;;;;;;;12.77;83.26;98245.67;1733186;81;20163;-91
2021/05/20 00:48:04;;;;;;;;;;;;;;;12.82;83.79;98249.77;1716545;81;20203;-92
2021/05/20 00:50:31;;;;;;;;;;;;;;;12.88;84.22;98248.16;1729001;82;20207;-90
2021/05/20 00:52:57;;;;;;;;;;;;;;;12.91;83.61;98255.86;1733005;81;20343;-88
2021/05/20 00:55:31;;;;;;;;;;;;;;;12.97;83.91;98255.16;1730243;83;20155;-92
2021/05/20 01:01:11;;;;;;;;;;;;;;;13.08;83.78;98243.28;1774869;80;20714;-92
2021/05/20 01:03:38;;;;;;;;;;;;;;;13.13;83.80;98239.16;1740058;82;20197;-90
2021/05/20 01:06:23;;;;;;;;;;;;;;;13.17;81.32;98237.22;1781340;79;20159;-90
2021/05/20 01:08:49;;;;;;;;;;;;;;;13.11;82.81;98239.67;1786720;80;20223;-90
2021/05/20 01:11:15;;;;;;;;;;;;;;;13.07;82.58;98244.22;1786504;80;20167;-89
2021/05/20 01:13:41;;;;;;;;;;;;;;;13.03;82.59;98244.42;1804173;79;20600;-91
2021/05/20 01:21:59;;;;;;;;;;;;;;;12.88;82.35;98242.11;1716370;81;20212;-92
2021/05/20 01:24:25;;;;;;;;;;;;;;;12.70;83.52;98222.50;1745857;81;20234;-92
2021/05/20 01:29:55;;;;;;;;;;;;;;;12.64;83.97;98201.09;1706060;82;20182;-91
2021/05/20 01:32:21;;;;;;;;;;;;;;;12.72;83.20;98221.97;1713032;83;20192;-91
2021/05/20 01:35:28;;;;;;;;;;;;;;;12.68;82.34;98218.28;1771823;80;20265;-92
2021/05/20 01:41:14;;;;;;;;;;;;;;;12.53;84.28;98206.37;1709949;83;20224;-92
2021/05/20 01:43:46;;;;;;;;;;;;;;;12.50;83.06;98208.27;1709963;84;20172;-92
2021/05/20 01:46:28;;;;;;;;;;;;;;;12.47;84.61;98208.40;1714809;82;20166;-92
2021/05/20 01:48:55;;;;;;;;;;;;;;;12.41;86.23;98208.22;1748097;82;20173;-92
2021/05/20 01:51:46;;;;;;;;;;;;;;;12.36;86.38;98208.08;1781020;79;20163;-91
2021/05/20 01:54:12;;;;;;;;;;;;;;;12.30;86.16;98209.20;1759200;81;20621;-92
2021/05/20 01:56:38;;;;;;;;;;;;;;;12.28;84.02;98208.42;1797920;79;20153;-92
2021/05/20 01:59:10;;;;;;;;;;;;;;;12.26;85.21;98214.16;1788049;79;20210;-92
2021/05/20 02:01:56;;;;;;;;;;;;;;;12.21;86.57;98212.22;1718582;81;20197;-89
2021/05/20 02:04:22;;;;;;;;;;;;;;;12.21;83.74;98213.52;1728703;83;20205;-91
2021/05/20 02:06:48;;;;;;;;;;;;;;;12.20;83.32;98206.17;1725832;83;20198;-91
2021/05/20 02:09:15;;;;;;;;;;;;;;;12.19;86.85;98199.25;1736468;83;20599;-91
2021/05/20 02:11:41;;;;;;;;;;;;;;;12.20;85.75;98198.81;1726409;82;20162;-89
2021/05/20 02:14:07;;;;;;;;;;;;;;;12.21;85.23;98203.09;1709369;83;20191;-91
2021/05/20 02:16:33;;;;;;;;;;;;;;;12.22;82.58;98196.98;1719399;83;20175;-89
2021/05/20 02:18:59;;;;;;;;;;;;;;;12.23;84.46;98194.75;1708808;83;20194;-89
2021/05/20 02:21:26;;;;;;;;;;;;;;;12.26;86.73;98191.55;1713335;83;20211;-88
2021/05/20 02:23:52;;;;;;;;;;;;;;;12.07;85.53;98153.77;1720266;83;20244;-90
2021/05/20 02:26:18;;;;;;;;;;;;;;;12.32;84.96;98180.84;1721151;82;20187;-92
2021/05/20 02:28:45;;;;;;;;;;;;;;;12.35;85.36;98190.27;1724360;82;20178;-92
2021/05/20 02:31:11;;;;;;;;;;;;;;;12.36;86.84;98191.97;1715469;83;20186;-91
2021/05/20 02:36:38;;;;;;;;;;;;;;;12.36;85.31;98188.53;1703443;81;20172;-90
2021/05/20 02:39:05;;;;;;;;;;;;;;;12.37;85.87;98188.43;1735764;81;20176;-91
2021/05/20 02:41:31;;;;;;;;;;;;;;;12.39;86.53;98188.37;1751596;81;20171;-91
2021/05/20 02:43:57;;;;;;;;;;;;;;;12.42;86.57;98189.54;1747341;81;20526;-87
2021/05/20 02:46:32;;;;;;;;;;;;;;;12.42;86.23;98186.47;1764228;80;20201;-91
2021/05/20 02:49:30;;;;;;;;;;;;;;;;;;1713987;83;20582;-91
2021/05/20 02:51:56;;;;;;;;;;;;;;;12.47;86.17;98193.63;1715326;83;20180;-91
2021/05/20 02:54:22;;;;;;;;;;;;;;;12.50;86.07;98193.47;1714344;83;20172;-92
2021/05/20 02:56:49;;;;;;;;;;;;;;;12.53;86.16;98202.45;1717498;83;20203;-90
2021/05/20 03:02:18;;;;;;;;;;;;;;;12.57;87.30;98202.30;1778411;78;20203;-92
2021/05/20 03:04:44;;;;;;;;;;;;;;;12.61;84.51;98209.05;1757603;81;20197;-90
2021/05/20 03:07:11;;;;;;;;;;;;;;;12.60;85.71;98209.98;1726252;82;20568;-91
2021/05/20 03:09:44;;;;;;;;;;;;;;;12.56;85.19;98210.58;1755560;81;20181;-91
2021/05/20 03:12:17;;;;;;;;;;;;;;;12.54;86.67;98208.51;1749858;81;20186;-92
2021/05/20 03:14:43;;;;;;;;;;;;;;;12.56;87.71;98211.05;1763090;81;20219;-91
2021/05/20 03:17:11;;;;;;;;;;;;;;;12.59;86.67;98217.41;1754512;81;20202;-91
2021/05/20 03:19:55;;;;;;;;;;;;;;;12.58;84.17;98217.03;1706369;84;20189;-92
2021/05/20 03:22:24;;;;;;;;;;;;;;;12.50;87.96;98218.23;1681231;82;20204;-92
2021/05/20 03:24:50;;;;;;;;;;;;;;;12.53;87.47;98221.14;1708665;84;20235;-92
2021/05/20 03:30:44;;;;;;;;;;;;;;;12.53;87.96;98213.32;1713399;83;20178;-85
2021/05/20 03:33:19;;;;;;;;;;;;;;;12.54;86.62;98210.65;1672919;81;20170;-92
2021/05/20 03:36:04;;;;;;;;;;;;;;;12.52;87.44;98213.78;1615674;83;20171;-91
2021/05/20 03:38:30;;;;;;;;;;;;;;;12.49;84.76;98210.47;1603875;88;20173;-90
2021/05/20 03:40:56;;;;;;;;;;;;;;;12.47;86.43;98211.00;1633621;87;20227;-90
2021/05/20 03:43:23;;;;;;;;;;;;;;;12.43;86.89;98212.91;1629934;87;20191;-90
2021/05/20 03:45:59;;;;;;;;;;;;;;;12.41;86.03;98214.73;1666990;79;20163;-89
2021/05/20 03:48:25;;;;;;;;;;;;;;;12.38;88.77;98220.11;1780216;80;20219;-89
2021/05/20 03:50:51;;;;;;;;;;;;;;;12.42;86.72;98222.12;1783890;80;20155;-88
2021/05/20 03:53:18;;;;;;;;;;;;;;;12.43;88.43;98221.19;1784534;80;20214;-90
2021/05/20 03:55:46;;;;;;;;;;;;;;;12.45;89.22;98222.80;1789450;80;20147;-83
2021/05/20 03:58:18;;;;;;;;;;;;;;;12.45;89.56;98224.11;1784462;80;20187;-81
2021/05/20 04:00:44;;;;;;;;;;;;;;;12.48;89.94;98223.14;1784089;80;20187;-88
2021/05/20 04:03:10;;;;;;;;;;;;;;;12.46;90.05;98226.28;1777168;80;20179;-91
2021/05/20 04:05:36;;;;;;;;;;;;;;;12.46;89.97;98225.81;1775360;80;20199;-89
2021/05/20 04:08:03;;;;;;;;;;;;;;;12.32;90.11;98214.72;1765898;80;20202;-89
2021/05/20 04:10:29;;;;;;;;;;;;;;;12.53;89.72;98234.18;1775969;80;20615;-88
2021/05/20 04:12:56;;;;;;;;;;;;;;;12.58;89.54;98231.38;1774206;80;20187;-90
2021/05/20 04:15:22;;;;;;;;;;;;;;;12.59;88.01;98222.63;1774034;80;20181;-90
2021/05/20 04:17:48;;;;;;;;;;;;;;;12.59;89.32;98227.38;1783219;80;20260;-88
2021/05/20 04:20:15;;;;;;;;;;;;;;;12.63;86.66;98228.91;1793661;80;20223;-90
2021/05/20 04:22:41;;;;;;;;;;;;;;;12.66;88.88;98230.09;1785203;80;20175;-89
2021/05/20 04:25:08;;;;;;;;;;;;;;;12.73;87.39;98229.33;1785794;80;20171;-90
2021/05/20 04:27:34;;;;;;;;;;;;;;;12.76;88.07;98229.19;1777277;80;20218;-92
2021/05/20 04:30:01;;;;;;;;;;;;;;;12.80;87.69;98234.64;1761998;80;20201;-91
2021/05/20 04:32:27;;;;;;;;;;;;;;;12.85;86.22;98240.94;1774140;79;20131;-91
2021/05/20 04:34:55;;;;;;;;;;;;;;;12.88;87.12;98234.28;1714569;82;20225;-90
2021/05/20 04:37:36;;;;;;;;;;;;;;;12.96;86.66;98237.83;1738553;83;20091;-85
2021/05/20 04:40:19;;;;;;;;;;;;;;;13.01;87.83;98235.83;1719048;82;20127;-85
2021/05/20 04:42:51;;;;;;;;;;;;;;;13.08;86.91;98231.54;1711449;81;20201;-89
2021/05/20 04:45:24;;;;;;;;;;;;;;;12.94;86.65;98202.67;1680232;82;20193;-89
2021/05/20 04:47:50;;;;;;;;;;;;;;;13.21;86.12;98231.80;1735646;82;20509;-90
2021/05/20 04:50:22;;;;;;;;;;;;;;;13.29;86.54;98240.13;1732319;82;20214;-89
2021/05/20 04:56:23;;;;;;;;;;;;;;;13.32;84.53;98216.92;1748747;77;20170;-85
2021/05/20 04:59:19;;;;;;;;;;;;;;;13.38;85.20;98237.50;1722940;82;20138;-86
2021/05/20 05:01:45;;;;;;;;;;;;;;;13.49;84.61;98236.98;1753095;81;20173;-89
2021/05/20 05:04:11;;;;;;;;;;;;;;;13.56;84.07;98233.58;1712287;84;20263;-90
2021/05/20 05:06:38;;;;;;;;;;;;;;;13.53;83.00;98227.59;1727916;83;20179;-90
2021/05/20 05:09:04;;;;;;;;;;;;;;;13.57;83.79;98231.34;1728110;83;20142;-91
2021/05/20 05:11:30;;;;;;;;;;;;;;;13.59;82.54;98223.83;1727735;83;20187;-83
2021/05/20 05:13:57;;;;;;;;;;;;;;;13.57;82.60;98230.90;1717924;83;20186;-88
2021/05/20 05:16:23;;;;;;;;;;;;;;;13.63;82.40;98227.14;1716971;83;20199;-88
2021/05/20 05:18:49;;;;;;;;;;;;;;;13.63;82.60;98227.14;1727489;83;20161;-86
2021/05/20 05:21:15;;;;;;;;;;;;;;;13.78;81.76;98233.32;1720841;83;20231;-86
2021/05/20 05:23:42;;;;;;;;;;;;;;;13.82;82.45;98222.63;1727510;83;20304;-88
2021/05/20 05:26:08;;;;;;;;;;;;;;;13.84;82.66;98224.69;1714644;83;20208;-84
2021/05/20 05:28:34;;;;;;;;;;;;;;;13.92;81.84;98232.13;1721544;83;20193;-84
2021/05/20 05:31:00;;;;;;;;;;;;;;;14.00;82.02;98222.12;1708933;83;20189;-89
2021/05/20 05:33:26;;;;;;;;;;;;;;;14.07;82.48;98222.66;1712327;83;20174;-90
2021/05/20 05:35:52;;;;;;;;;;;;;;;14.15;82.78;98221.78;1727995;83;20202;-88
2021/05/20 05:38:19;;;;;;;;;;;;;;;14.24;81.87;98228.27;1728171;83;20177;-89
2021/05/20 05:40:45;;;;;;;;;;;;;;;14.20;82.88;98214.98;1726160;83;20181;-88
2021/05/20 05:43:11;;;;;;;;;;;;;;;14.36;82.45;98222.84;1698586;83;20206;-91
2021/05/20 05:45:38;;;;;;;;;;;;;;;14.30;82.20;98220.09;1719609;83;20642;-85
2021/05/20 05:48:06;;;;;;;;;;;;;;;14.29;81.84;98221.03;1706704;82;20208;-90
2021/05/20 05:50:33;;;;;;;;;;;;;;;14.26;81.64;98204.20;1763223;80;20213;-87
2021/05/20 05:53:03;;;;;;;;;;;;;;;14.26;81.76;98229.03;1770552;80;20190;-92
2021/05/20 05:55:27;;;;;;;;;;;;;;;14.19;81.98;98231.14;1699650;80;20209;-86
2021/05/20 05:57:54;;;;;;;;;;;;;;;14.23;81.71;98234.44;1689745;84;20237;-91
2021/05/20 06:00:24;;;;;;;;;;;;;;;14.16;81.99;98230.45;1684555;84;20180;-92
2021/05/20 06:02:53;;;;;;;;;;;;;;;14.16;80.29;98227.38;1687661;84;20251;-87
2021/05/20 06:05:20;;;;;;;;;;;;;;;14.05;82.04;98229.27;1697229;83;20186;-94
2021/05/20 06:07:47;;;;;;;;;;;;;;;14.02;81.48;98236.42;1744702;80;20176;-93
2021/05/20 06:10:13;;;;;;;;;;;;;;;14.00;81.52;98231.27;1815839;79;20208;-92
2021/05/20 06:12:40;;;;;;;;;;;;;;;13.78;82.90;98201.50;1814687;79;20288;-92
2021/05/20 06:15:07;;;;;;;;;;;;;;;13.90;82.43;98232.67;1801611;79;20173;-87
2021/05/20 06:17:36;;;;;;;;;;;;;;;13.82;83.28;98233.55;1809767;79;20169;-94
2021/05/20 06:20:03;;;;;;;;;;;;;;;13.80;83.77;98226.25;1751473;79;20142;-91
2021/05/20 06:22:30;;;;;;;;;;;;;;;13.84;82.37;98226.47;1728832;79;20160;-94
2021/05/20 06:25:00;;;;;;;;;;;;;;;13.69;84.39;98230.73;1720869;81;20226;31
2021/05/20 06:27:28;;;;;;;;;;;;;;;13.68;83.90;98228.56;1630145;86;20195;-92
2021/05/20 06:29:54;;;;;;;;;;;;;;;13.78;84.05;98225.02;1644536;86;20135;-90
2021/05/20 06:32:21;;;;;;;;;;;;;;;13.85;83.49;98226.87;1649887;86;20585;-88
2021/05/20 06:34:47;;;;;;;;;;;;;;;13.87;83.02;98231.08;1640207;86;20218;-91
2021/05/20 06:37:14;;;;;;;;;;;;;;;13.93;82.91;98226.00;1642944;86;20159;-90
2021/05/20 06:39:41;;;;;;;;;;;;;;;14.00;82.00;98224.73;1633609;86;20202;-85
2021/05/20 06:42:10;;;;;;;;;;;;;;;14.06;82.06;98223.56;1653523;85;20177;-85
2021/05/20 06:44:37;;;;;;;;;;;;;;;14.10;82.21;98227.23;1635778;86;20211;-88
2021/05/20 06:47:05;;;;;;;;;;;;;;;14.16;81.84;98231.30;1643006;87;20150;-87
2021/05/20 06:49:33;;;;;;;;;;;;;;;14.18;81.61;98232.52;1636888;86;20246;-85
2021/05/20 06:52:00;;;;;;;;;;;;;;;14.23;81.54;98230.05;1635308;85;20252;-85
2021/05/20 06:54:26;;;;;;;;;;;;;;;14.31;81.41;98223.94;1683891;81;20229;-89
2021/05/20 06:56:57;;;;;;;;;;;;;;;14.37;80.58;98224.55;1696239;83;20178;-89
2021/05/20 07:02:06;;;;;;;;;;;;;;;14.41;80.62;98227.38;1684568;85;20234;-84
2021/05/20 07:04:32;;;;;;;;;;;;;;;14.47;79.44;98227.88;1692962;82;20167;-85
2021/05/20 07:07:03;;;;;;;;;;;;;;;14.35;78.83;98199.78;1693188;84;20202;-80
2021/05/20 07:09:34;;;;;;;;;;;;;;;14.57;78.54;98230.02;1661233;85;20167;-82
2021/05/20 07:12:07;;;;;;;;;;;;;;;14.66;78.99;98232.11;1667467;85;20174;-84
2021/05/20 07:14:33;;;;;;;;;;;;;;;14.68;78.54;98235.48;1692265;84;20185;-85
2021/05/20 07:17:00;;;;;;;;;;;;;;;14.62;80.16;98234.52;1682705;85;20225;-80
2021/05/20 07:19:26;;;;;;;;;;;;;;;14.70;79.79;98234.94;1678470;85;20188;-80
2021/05/20 07:21:53;;;;;;;;;;;;;;;14.67;80.08;98236.43;1687352;84;20236;-82
2021/05/20 07:24:20;;;;;;;;;;;;;;;14.63;79.72;98237.53;1688330;83;20203;-80
2021/05/20 07:26:46;;;;;;;;;;;;;;;14.56;79.61;98234.83;1675962;85;20188;-81
2021/05/20 07:29:12;;;;;;;;;;;;;;;14.60;79.72;98234.59;1681425;84;20179;-81
2021/05/20 07:31:39;;;;;;;;;;;;;;;14.75;79.65;98231.61;1690472;83;20252;-81
2021/05/20 07:34:06;;;;;;;;;;;;;;;14.83;79.30;98228.56;1687467;83;20966;-79
2021/05/20 07:36:33;;;;;;;;;;;;;;;14.94;79.43;98234.49;1684619;84;20223;-80
2021/05/20 07:39:00;;;;;;;;;;;;;;;15.09;78.91;98232.32;1689886;83;20198;-80
2021/05/20 07:41:29;;;;;;;;;;;;;;;15.26;78.83;98226.96;1690879;83;20177;-83
2021/05/20 07:43:55;;;;;;;;;;;;;;;15.42;78.36;98230.84;1688418;84;20194;-82
2021/05/20 07:46:22;;;;;;;;;;;;;;;15.63;77.95;98233.95;1686326;84;20242;-81
2021/05/20 07:48:49;;;;;;;;;;;;;;;15.80;76.93;98237.39;1688019;84;20190;-86
2021/05/20 07:51:15;;;;;;;;;;;;;;;15.89;75.72;98240.75;1689862;85;20214;-86
2021/05/20 07:53:42;;;;;;;;;;;;;;;15.95;74.03;98235.61;1693477;84;20330;-81
2021/05/20 07:56:08;;;;;;;;;;;;;;;16.13;74.90;98238.89;1695623;83;20206;-79
2021/05/20 07:58:35;;;;;;;;;;;;;;;16.32;74.50;98235.98;1699138;83;20341;-80
2021/05/20 08:01:03;;;;;;;;;;;;;;;16.48;74.14;98245.89;1695139;83;20804;-80
2021/05/20 08:03:40;;;;;;;;;;;;;;;16.66;74.35;98243.88;1692235;83;20548;-80
2021/05/20 08:06:14;;;;;;;;;;;;;;;16.79;73.39;98239.99;1689176;83;20864;-82
2021/05/20 08:08:52;;;;;;;;;;;;;;;16.88;73.66;98244.69;1694396;83;20178;-78
2021/05/20 08:11:07;;;;;;;;;;;;;;;16.85;71.93;98240.49;1692018;84;20178;-79
2021/05/20 08:13:34;;;;;;;;;;;;;;;16.90;70.96;98245.44;1691831;84;20225;-79
2021/05/20 08:16:02;;;;;;;;;;;;;;;16.90;70.38;98249.38;1683576;84;20245;-82
2021/05/20 08:18:29;;;;;;;;;;;;;;;16.88;70.73;98245.53;1705829;83;20212;-81
2021/05/20 08:20:57;;;;;;;;;;;;;;;16.83;71.33;98242.38;1685559;84;20233;-79
2021/05/20 08:23:24;;;;;;;;;;;;;;;16.68;71.03;98242.84;1702387;83;20189;-80
2021/05/20 08:25:51;;;;;;;;;;;;;;;16.57;70.67;98240.52;1706543;83;20205;-78
2021/05/20 08:28:17;;;;;;;;;;;;;;;16.38;71.15;98256.11;1706223;83;20160;-79
2021/05/20 08:30:44;;;;;;;;;;;;;;;16.14;72.40;98253.70;1713359;83;20236;-79
2021/05/20 08:33:11;;;;;;;;;;;;;;;16.06;72.19;98255.00;1711840;83;20192;-81
2021/05/20 08:35:38;;;;;;;;;;;;;;;15.82;72.18;98260.42;1678764;84;20246;-80
2021/05/20 08:38:05;;;;;;;;;;;;;;;15.71;72.89;98256.61;1675638;84;20503;-80
2021/05/20 08:40:33;;;;;;;;;;;;;;;15.57;73.58;98255.28;1670044;84;20255;-82
2021/05/20 08:43:00;;;;;;;;;;;;;;;15.45;73.12;98254.22;1704800;82;20871;-79
2021/05/20 08:45:29;;;;;;;;;;;;;;;15.24;74.40;98253.70;1682285;84;20201;-81
2021/05/20 08:47:56;;;;;;;;;;;;;;;15.13;75.07;98253.46;1699429;84;20158;-80
2021/05/20 08:50:25;;;;;;;;;;;;;;;15.07;74.53;98255.13;1692113;82;20558;-79
2021/05/20 08:52:52;;;;;;;;;;;;;;;15.10;74.51;98253.19;1701332;82;20583;-79
2021/05/20 08:55:25;;;;;;;;;;;;;;;15.19;74.54;98253.11;1710394;82;20538;-79
2021/05/20 08:57:53;;;;;;;;;;;;;;;15.30;74.46;98253.82;1714258;82;20204;-79
2021/05/20 09:00:22;;;;;;;;;;;;;;;15.30;73.55;98255.13;1719698;82;20192;-79
2021/05/20 09:02:49;;;;;;;;;;;;;;;15.40;73.93;98256.72;1715021;83;20172;-84
2021/05/20 09:05:18;;;;;;;;;;;;;;;15.46;72.87;98252.46;1720037;82;20213;-80
2021/05/20 09:07:50;;;;;;;;;;;;;;;15.63;73.51;98247.53;1710872;82;20195;-82
2021/05/20 09:10:20;;;;;;;;;;;;;;;15.65;71.68;98253.05;1713257;82;20230;-80
2021/05/20 09:12:52;;;;;;;;;;;;;;;15.92;70.19;98255.00;1700223;83;20248;-82
2021/05/20 09:15:27;;;;;;;;;;;;;;;16.07;70.86;98261.91;1703260;82;20251;-82
2021/05/20 09:17:57;;;;;;;;;;;;;;;16.25;69.76;98257.80;1687198;85;20320;-86
2021/05/20 09:20:28;;;;;;;;;;;;;;;16.28;69.64;98260.24;1695443;85;20107;-85
2021/05/20 09:23:10;;;;;;;;;;;;;;;16.28;69.53;98258.94;1695402;83;20223;-85
2021/05/20 09:25:39;;;;;;;;;;;;;;;16.55;70.18;98252.41;1704801;84;20205;-85
2021/05/20 09:28:13;;;;;;;;;;;;;;;16.63;69.60;98263.74;1674142;84;20142;-86
2021/05/20 09:30:42;;;;;;;;;;;;;;;16.79;69.65;98263.17;1708078;84;20193;-86
2021/05/20 09:33:14;;;;;;;;;;;;;;;16.97;67.38;98263.80;1704490;84;20250;-84
2021/05/20 09:35:46;;;;;;;;;;;;;;;17.04;66.56;98260.30;1702120;83;20146;-84
2021/05/20 09:38:29;;;;;;;;;;;;;;;17.12;66.02;98265.89;1710288;81;20261;-85
2021/05/20 09:50:00;;;;;;;;;;;;;;;17.65;65.73;98266.76;1736725;79;20197;-86
2021/05/20 09:52:28;;;;;;;;;;;;;;;17.59;65.47;98272.43;1794295;77;20181;-89
2021/05/20 09:54:55;;;;;;;;;;;;;;;17.51;64.14;98266.84;1775895;80;20101;-88
2021/05/20 09:57:28;;;;;;;;;;;;;;;17.49;64.50;98264.80;1745667;82;20154;-88
2021/05/20 10:00:12;;;;;;;;;;;;;;;17.45;65.45;98269.89;1789754;78;20107;-88
2021/05/20 10:02:41;;;;;;;;;;;;;;;17.34;65.35;98268.43;1807487;79;20143;-88
2021/05/20 10:05:23;;;;;;;;;;;;;;;17.08;63.83;98263.09;1799060;78;20172;-89
2021/05/20 10:07:51;;;;;;;;;;;;;;;17.03;64.43;98266.03;1812867;78;20150;-85
2021/05/20 10:10:19;;;;;;;;;;;;;;;16.95;65.51;98268.76;1812824;78;20598;-88
2021/05/20 10:12:46;;;;;;;;;;;;;;;16.81;66.03;98266.57;1812607;79;20245;-87
2021/05/20 10:15:16;;;;;;;;;;;;;;;16.62;66.59;98268.16;1812339;79;20276;-86
2021/05/20 10:17:42;;;;;;;;;;;;;;;16.56;68.14;98267.23;1799916;79;20165;-85
2021/05/20 10:20:12;;;;;;;;;;;;;;;16.62;69.74;98259.45;1792435;79;20199;-86
2021/05/20 10:22:38;;;;;;;;;;;;;;;16.66;70.74;98267.02;1796329;79;20182;-86
2021/05/20 10:25:06;;;;;;;;;;;;;;;16.73;70.34;98258.76;1794381;79;20220;-85
2021/05/20 10:27:34;;;;;;;;;;;;;;;16.72;70.62;98255.30;1806396;79;20106;-86
2021/05/20 10:30:01;;;;;;;;;;;;;;;16.63;70.82;98263.30;1793760;79;20136;-85
2021/05/20 10:32:28;;;;;;;;;;;;;;;16.72;70.34;98267.11;1788827;79;20256;-86
2021/05/20 10:35:10;;;;;;;;;;;;;;;16.69;70.91;98264.66;1807327;79;20130;-86
2021/05/20 10:37:42;;;;;;;;;;;;;;;16.76;71.08;98263.34;1794415;79;20145;-86
2021/05/20 10:40:26;;;;;;;;;;;;;;;16.85;71.15;98267.19;1795695;78;20220;-87
2021/05/20 10:43:14;;;;;;;;;;;;;;;16.82;72.54;98265.61;1802038;78;20368;-89
2021/05/20 10:46:05;;;;;;;;;;;;;;;16.81;70.95;98269.19;1796756;79;20235;-89
2021/05/20 10:48:34;;;;;;;;;;;;;;;16.77;71.58;98275.55;1778016;79;20228;-88
2021/05/20 10:51:18;;;;;;;;;;;;;;;16.78;71.63;98275.91;1762870;79;20140;-88
2021/05/20 10:53:51;;;;;;;;;;;;;;;16.68;71.54;98269.56;1735059;82;20173;-87
2021/05/20 10:56:27;;;;;;;;;;;;;;;16.70;71.44;98268.52;1715258;82;20221;-88
2021/05/20 10:58:57;;;;;;;;;;;;;;;16.70;71.44;98271.62;1774773;79;20140;-88
2021/05/20 11:02:12;;;;;;;;;;;;;;;16.70;72.42;98286.05;1753228;81;20201;-87
2021/05/20 11:04:44;;;;;;;;;;;;;;;16.63;72.42;98281.67;1737210;80;20090;-87
2021/05/20 11:07:11;;;;;;;;;;;;;;;16.49;72.19;98281.22;1725004;80;20322;-86
2021/05/20 11:09:51;;;;;;;;;;;;;;;16.33;73.10;98283.08;1743077;80;20099;-87
2021/05/20 11:12:20;;;;;;;;;;;;;;;16.13;73.12;98284.77;1736107;82;20255;-88
2021/05/20 11:14:51;;;;;;;;;;;;;;;15.96;74.83;98283.19;1742740;82;20286;-88
2021/05/20 11:17:34;;;;;;;;;;;;;;;15.99;74.80;98289.06;1749207;82;20213;-88
2021/05/20 11:20:31;;;;;;;;;;;;;;;15.76;75.91;98261.63;1759244;79;20201;-87
2021/05/20 11:23:23;;;;;;;;;;;;;;;15.83;76.20;98290.45;1757611;78;20113;-87
2021/05/20 11:26:29;;;;;;;;;;;;;;;15.65;73.00;98289.72;1760913;82;20608;-87
2021/05/20 11:29:09;;;;;;;;;;;;;;;15.65;73.96;98292.34;1709178;78;20099;-88
2021/05/20 11:31:50;;;;;;;;;;;;;;;15.65;73.97;98286.27;1685055;83;20146;-93
2021/05/20 11:35:14;;;;;;;;;;;;;;;;;;;;;
2021/05/20 11:37:39;;;;;;;;;;;;;;;15.62;74.54;98291.23;1696235;84;20196;-92
2021/05/20 11:40:07;;;;;;;;;;;;;;;15.57;73.37;98288.02;1719583;80;20289;-92
2021/05/20 11:42:35;;;;;;;;;;;;;;;15.59;72.94;98287.94;1713489;82;20177;-92
2021/05/20 11:45:04;;;;;;;;;;;;;;;15.61;72.94;98288.22;1728613;82;20509;-92
2021/05/20 11:47:30;;;;;;;;;;;;;;;15.58;71.46;98279.24;1735975;79;20227;-92
2021/05/20 11:49:56;;;;;;;;;;;;;;;15.54;70.27;98281.67;1730053;81;20181;-94
2021/05/20 11:52:25;;;;;;;;;;;;;;;15.54;72.36;98279.49;1726628;82;20236;-93
2021/05/20 11:54:55;;;;;;;;;;;;;;;15.53;72.59;98286.52;1722660;79;20226;-86
2021/05/20 11:57:24;;;;;;;;;;;;;;;15.30;73.31;98254.66;1704124;81;20162;-86
2021/05/20 12:02:56;;;;;;;;;;;;;;;15.44;73.00;98298.38;1681942;82;20208;-83
2021/05/20 12:05:24;;;;;;;;;;;;;;;15.37;73.18;98294.89;1726426;79;20201;-92
2021/05/20 12:07:51;;;;;;;;;;;;;;;15.41;75.03;98296.40;1773330;78;20135;-86
2021/05/20 12:10:24;;;;;;;;;;;;;;;15.41;75.41;98312.11;1753363;78;21294;31
2021/05/20 12:13:00;;;;;;;;;;;;;;;15.45;76.54;98313.62;1664298;85;20185;-89
2021/05/20 12:15:28;;;;;;;;;;;;;;;15.46;73.48;98320.56;1670813;85;20173;-86
2021/05/20 12:18:01;;;;;;;;;;;;;;;15.37;73.48;98328.46;1703866;80;20098;-86
2021/05/20 12:20:29;;;;;;;;;;;;;;;15.26;71.69;98330.84;1724327;80;20243;-85
2021/05/20 12:22:56;;;;;;;;;;;;;;;15.18;72.87;98335.22;1715308;82;20180;-85
2021/05/20 12:25:24;;;;;;;;;;;;;;;15.02;74.21;98335.23;1709043;83;20220;-85
2021/05/20 12:27:52;;;;;;;;;;;;;;;15.05;74.56;98342.06;1716798;82;20156;-87
2021/05/20 12:30:28;;;;;;;;;;;;;;;15.06;74.28;98345.04;1699251;84;20245;-86
2021/05/20 12:33:07;;;;;;;;;;;;;;;14.91;76.31;98348.89;1683443;85;20171;-87
2021/05/20 12:35:39;;;;;;;;;;;;;;;14.89;76.40;98325.05;1684719;85;20176;-88
2021/05/20 12:38:16;;;;;;;;;;;;;;;15.01;77.09;98342.69;1683464;85;20202;-87
2021/05/20 12:40:49;;;;;;;;;;;;;;;15.03;75.40;98343.45;1711763;83;20172;-87
2021/05/20 12:43:28;;;;;;;;;;;;;;;14.85;76.19;98338.76;1714506;82;20156;-84
2021/05/20 12:45:58;;;;;;;;;;;;;;;14.84;75.49;98341.02;1708875;84;20146;-87
2021/05/20 12:48:31;;;;;;;;;;;;;;;14.69;76.81;98334.82;1707461;84;20207;-87
2021/05/20 12:51:17;;;;;;;;;;;;;;;14.73;76.17;98346.44;1705142;81;20636;-92
2021/05/20 12:53:55;;;;;;;;;;;;;;;14.73;76.31;98345.97;1735506;79;20206;-92
2021/05/20 12:56:25;;;;;;;;;;;;;;;14.66;77.31;98347.22;1718629;81;20188;-92
2021/05/20 12:59:02;;;;;;;;;;;;;;;14.59;78.51;98344.09;1717084;82;20154;-87
2021/05/20 13:01:38;;;;;;;;;;;;;;;14.57;75.99;98346.42;1691493;81;20191;-91
2021/05/20 13:04:32;;;;;;;;;;;;;;;14.52;77.71;98347.48;1707812;80;20179;-93
2021/05/20 13:10:36;;;;;;;;;;;;;;;14.41;78.32;98356.81;1714318;79;20245;-92
2021/05/20 13:13:03;;;;;;;;;;;;;;;14.29;79.12;98362.22;1774381;80;20159;-92
2021/05/20 13:15:58;;;;;;;;;;;;;;;14.24;78.09;98362.44;1778270;80;20229;-90
2021/05/20 13:23:33;;;;;;;;;;;;;;;14.16;82.02;98376.84;1649551;83;20619;-92
2021/05/20 13:28:50;;;;;;;;;;;;;;;14.09;81.04;98378.45;1667009;83;20206;-92
2021/05/20 13:31:18;;;;;;;;;;;;;;;14.00;80.78;98374.99;1775275;80;20540;-92
2021/05/20 13:33:47;;;;;;;;;;;;;;;13.96;79.30;98385.69;1698776;78;20198;-92
2021/05/20 13:36:13;;;;;;;;;;;;;;;13.81;80.70;98391.23;1712544;80;20188;-92
2021/05/20 13:38:40;;;;;;;;;;;;;;;13.76;79.92;98394.52;1711445;83;20755;-92
2021/05/20 13:41:06;;;;;;;;;;;;;;;13.68;82.09;98389.20;1706345;80;20204;-90
2021/05/20 13:43:32;;;;;;;;;;;;;;;13.60;82.51;98396.56;1692147;83;20188;-92
2021/05/20 13:45:59;;;;;;;;;;;;;;;13.59;82.76;98396.63;1690928;84;20164;-93
2021/05/20 13:48:27;;;;;;;;;;;;;;;13.51;81.38;98404.86;1706418;84;20548;-92
2021/05/20 13:50:53;;;;;;;;;;;;;;;13.38;82.53;98401.14;1682671;80;20160;-93
2021/05/20 13:53:20;;;;;;;;;;;;;;;13.25;83.32;98406.91;1672609;85;20174;-93
2021/05/20 13:55:46;;;;;;;;;;;;;;;13.21;81.15;98411.89;1674286;84;20214;-93
2021/05/20 13:58:13;;;;;;;;;;;;;;;13.13;84.42;98416.16;1678208;84;20198;-91
2021/05/20 14:00:40;;;;;;;;;;;;;;;13.12;84.00;98424.05;1729159;81;20275;-92
2021/05/20 14:03:09;;;;;;;;;;;;;;;13.04;82.70;98424.40;1733671;81;20288;-94
2021/05/20 14:05:35;;;;;;;;;;;;;;;12.84;82.77;98435.73;1704722;80;20160;-93